createdAt,value
2018-09-17T01:41:40.033Z,4.10
2018-09-17T01:51:27.850Z,3.50
2018-09-17T01:52:00.864Z,3.10
2018-09-17T01:53:06.415Z,3.58
2018-09-17T01:53:39.452Z,3.70
2018-09-17T01:54:12.507Z,3.28
2018-09-17T01:54:45.545Z,3.67
2018-09-17T01:55:19.332Z,3.90
2018-09-17T01:55:52.367Z,3.55
2018-09-17T01:56:25.409Z,3.78
2018-09-17T01:56:59.179Z,3.37
2018-09-17T01:57:32.973Z,4.03
2018-09-17T01:58:06.768Z,3.75
2018-09-17T01:58:40.607Z,4.37
2018-09-17T01:59:13.640Z,4.40
2018-09-17T01:59:47.450Z,4.10
2018-09-17T02:00:20.492Z,4.40
2018-09-17T02:00:54.286Z,3.83
2018-09-17T02:01:28.093Z,3.92
2018-09-17T02:02:01.888Z,4.72
2018-09-17T02:02:35.688Z,4.28
2018-09-17T02:03:09.482Z,4.47
2018-09-17T02:03:42.529Z,4.37
2018-09-17T02:04:15.556Z,4.45
2018-09-17T02:04:48.571Z,4.62
2018-09-17T02:05:21.602Z,4.72
2018-09-17T02:05:54.628Z,5.05
2018-09-17T02:06:27.753Z,5.20
2018-09-17T02:07:00.776Z,4.97
2018-09-17T02:07:33.792Z,4.85
2018-09-17T02:08:06.926Z,5.57
2018-09-17T02:08:40.677Z,5.55
2018-09-17T02:09:14.429Z,5.22
2018-09-17T02:09:48.278Z,5.97
2018-09-17T02:10:21.269Z,5.12
2018-09-17T02:25:04.906Z,4.62
2018-09-17T02:25:38.702Z,5.18
2018-09-17T02:26:12.511Z,4.80
2018-09-17T02:26:45.554Z,5.32
2018-09-17T02:27:19.380Z,4.95
2018-09-17T02:27:52.395Z,4.62
2018-09-17T02:28:25.754Z,4.68
2018-09-17T02:28:58.749Z,4.90
2018-09-17T02:29:31.781Z,5.03
2018-09-17T02:30:04.811Z,4.82
2018-09-17T02:30:37.844Z,4.95
2018-09-17T02:31:10.874Z,5.18
2018-09-17T02:31:43.917Z,4.93
2018-09-17T02:32:16.949Z,4.65
2018-09-17T02:32:50.044Z,4.85
2018-09-17T02:33:23.068Z,5.12
2018-09-17T02:33:56.116Z,4.93
2018-09-17T02:34:29.139Z,4.87
2018-09-17T02:35:02.185Z,4.80
2018-09-17T02:35:35.216Z,5.10
2018-09-17T02:36:08.260Z,4.85
2018-09-17T02:36:42.065Z,5.12
2018-09-17T02:37:15.357Z,4.78
2018-09-17T02:37:48.394Z,5.03
2018-09-17T02:38:21.418Z,5.12
2018-09-17T02:38:54.459Z,4.80
2018-09-17T02:39:27.487Z,4.68
2018-09-17T02:40:00.549Z,4.78
2018-09-17T02:40:33.596Z,5.10
2018-09-17T02:41:06.628Z,4.15
2018-09-17T02:41:39.664Z,4.47
2018-09-17T02:42:12.688Z,4.93
2018-09-17T02:42:45.733Z,4.60
2018-09-17T02:43:18.761Z,4.37
2018-09-17T02:43:51.793Z,5.18
2018-09-17T02:44:24.840Z,4.28
2018-09-17T02:44:57.877Z,4.40
2018-09-17T02:45:31.648Z,4.78
2018-09-17T02:46:04.690Z,4.68
2018-09-17T02:46:37.721Z,4.90
2018-09-17T02:47:10.742Z,4.45
2018-09-17T02:47:43.774Z,4.45
2018-09-17T02:48:16.805Z,4.47
2018-09-17T02:48:49.829Z,4.57
2018-09-17T02:49:22.860Z,4.10
2018-09-17T02:49:55.901Z,4.37
2018-09-17T02:50:29.696Z,4.65
2018-09-17T02:51:02.716Z,4.53
2018-09-17T02:51:35.745Z,4.35
2018-09-17T02:52:08.774Z,4.10
2018-09-17T02:52:42.568Z,4.32
2018-09-17T02:53:16.606Z,4.85
2018-09-17T02:53:49.620Z,4.70
2018-09-17T02:54:22.663Z,4.10
2018-09-17T02:54:56.457Z,4.50
2018-09-17T02:55:29.486Z,4.90
2018-09-17T02:56:03.285Z,4.72
2018-09-17T02:56:36.319Z,4.57
2018-09-17T02:57:09.352Z,4.35
2018-09-17T02:57:43.243Z,4.45
2018-09-17T02:58:16.301Z,4.30
2018-09-17T02:58:50.079Z,4.20
2018-09-17T02:59:23.143Z,4.97
2018-09-17T02:59:56.181Z,4.03
2018-09-17T03:00:29.219Z,3.85
2018-09-17T03:01:02.244Z,4.30
2018-09-17T03:01:35.411Z,4.15
2018-09-17T03:02:08.408Z,4.20
2018-09-17T03:02:41.432Z,4.00
2018-09-17T03:03:14.457Z,3.87
2018-09-17T03:03:47.489Z,3.90
2018-09-17T03:04:20.525Z,3.55
2018-09-17T03:04:54.322Z,3.90
2018-09-17T03:05:28.115Z,3.83
2018-09-17T03:06:01.915Z,4.05
2018-09-17T03:06:34.952Z,3.55
2018-09-17T03:07:07.984Z,4.20
2018-09-17T03:07:41.009Z,3.58
2018-09-17T03:08:14.040Z,3.85
2018-09-17T03:08:47.200Z,3.80
2018-09-17T03:09:20.209Z,4.25
2018-09-17T03:12:36.532Z,4.30
2018-09-17T03:14:47.863Z,3.65
2018-09-17T03:17:37.692Z,3.90
2018-09-17T03:18:10.708Z,4.18
2018-09-17T03:18:43.748Z,3.75
2018-09-17T03:19:16.781Z,4.10
2018-09-17T03:20:55.602Z,3.40
2018-09-17T03:21:28.636Z,3.90
2018-09-17T03:22:02.447Z,3.75
2018-09-17T03:22:35.475Z,4.00
2018-09-17T03:23:08.514Z,3.78
2018-09-17T03:23:41.545Z,4.03
2018-09-17T03:24:14.561Z,3.58
2018-09-17T03:24:48.377Z,4.25
2018-09-17T03:25:22.176Z,3.67
2018-09-17T03:25:55.217Z,4.65
2018-09-17T03:26:28.249Z,3.90
2018-09-17T03:27:01.291Z,3.85
2018-09-17T03:27:34.321Z,3.62
2018-09-17T03:28:07.352Z,3.70
2018-09-17T03:28:40.395Z,4.12
2018-09-17T03:29:13.404Z,3.95
2018-09-17T03:29:46.500Z,4.10
2018-09-17T03:30:20.288Z,4.00
2018-09-17T03:30:54.089Z,3.97
2018-09-17T03:31:27.884Z,3.90
2018-09-17T03:32:01.696Z,3.75
2018-09-17T03:32:34.747Z,4.20
2018-09-17T03:33:07.765Z,4.07
2018-09-17T03:33:40.789Z,4.05
2018-09-17T03:34:14.583Z,3.75
2018-09-17T03:34:48.412Z,3.92
2018-09-17T03:35:21.436Z,3.78
2018-09-17T03:35:55.968Z,3.70
2018-09-17T03:36:29.757Z,3.87
2018-09-17T03:37:03.564Z,3.65
2018-09-17T03:37:36.592Z,3.10
2018-09-17T03:38:09.634Z,4.15
2018-09-17T03:38:42.659Z,3.90
2018-09-17T03:39:16.457Z,4.35
2018-09-17T03:39:50.268Z,3.97
2018-09-17T03:40:24.063Z,4.00
2018-09-17T03:40:57.088Z,4.10
2018-09-17T03:41:30.118Z,3.75
2018-09-17T03:42:03.155Z,3.87
2018-09-17T03:42:36.180Z,3.87
2018-09-17T03:43:09.213Z,3.60
2018-09-17T03:43:42.235Z,3.80
2018-09-17T03:44:15.255Z,4.15
2018-09-17T03:44:48.307Z,3.75
2018-09-17T03:45:21.336Z,3.55
2018-09-17T03:45:54.359Z,3.25
2018-09-17T03:46:27.433Z,3.67
2018-09-17T03:47:00.432Z,3.65
2018-09-17T03:47:33.483Z,3.75
2018-09-17T03:48:06.496Z,4.10
2018-09-17T03:48:40.292Z,3.42
2018-09-17T03:49:14.080Z,3.60
2018-09-17T03:49:47.888Z,3.90
2018-09-17T03:50:20.916Z,3.65
2018-09-17T03:50:53.934Z,3.62
2018-09-17T03:51:26.966Z,3.53
2018-09-17T03:52:00.003Z,3.85
2018-09-17T03:52:33.041Z,3.60
2018-09-17T03:53:06.063Z,3.92
2018-09-17T03:53:39.106Z,3.67
2018-09-17T03:54:12.140Z,3.70
2018-09-17T03:54:45.172Z,3.75
2018-09-17T03:55:18.226Z,3.45
2018-09-17T03:55:52.002Z,3.70
2018-09-17T03:56:25.799Z,4.00
2018-09-17T03:56:59.589Z,3.67
2018-09-17T03:57:33.378Z,3.95
2018-09-17T03:58:07.181Z,3.65
2018-09-17T03:58:40.973Z,3.72
2018-09-17T03:59:14.775Z,3.50
2018-09-17T03:59:47.799Z,4.18
2018-09-17T04:00:20.833Z,3.97
2018-09-17T04:00:53.855Z,4.05
2018-09-17T04:01:26.888Z,4.03
2018-09-17T04:01:59.919Z,4.28
2018-09-17T04:02:32.949Z,3.78
2018-09-17T04:03:05.963Z,3.60
2018-09-17T04:03:38.994Z,3.70
2018-09-17T04:04:12.025Z,3.70
2018-09-17T04:04:45.056Z,4.20
2018-09-17T04:05:18.093Z,3.50
2018-09-17T04:05:51.884Z,3.30
2018-09-17T04:06:25.674Z,3.72
2018-09-17T04:06:58.712Z,3.60
2018-09-17T04:07:31.739Z,4.10
2018-09-17T04:08:04.768Z,4.00
2018-09-17T04:08:37.792Z,3.70
2018-09-17T04:09:10.880Z,3.87
2018-09-17T04:09:43.836Z,3.80
2018-09-17T04:10:16.879Z,4.07
2018-09-17T04:10:51.086Z,3.83
2018-09-17T04:11:24.116Z,4.00
2018-09-17T04:11:57.145Z,3.67
2018-09-17T04:12:30.933Z,3.83
2018-09-17T04:13:03.969Z,4.57
2018-09-17T04:13:37.014Z,3.85
2018-09-17T04:14:10.039Z,3.83
2018-09-17T04:14:43.113Z,3.83
2018-09-17T04:15:16.139Z,3.70
2018-09-17T04:15:49.187Z,4.07
2018-09-17T04:16:22.215Z,4.05
2018-09-17T04:16:55.488Z,3.72
2018-09-17T04:17:28.511Z,3.65
2018-09-17T04:18:01.544Z,4.18
2018-09-17T04:18:34.604Z,3.90
2018-09-17T04:19:07.648Z,4.25
2018-09-17T04:19:40.680Z,4.30
2018-09-17T04:20:13.728Z,3.60
2018-09-17T04:20:46.747Z,4.25
2018-09-17T04:21:20.549Z,3.67
2018-09-17T04:21:54.341Z,3.97
2018-09-17T04:22:27.380Z,4.28
2018-09-17T04:23:00.404Z,3.62
2018-09-17T04:23:33.440Z,4.22
2018-09-17T04:24:06.471Z,3.72
2018-09-17T04:24:39.499Z,4.10
2018-09-17T04:25:13.324Z,3.85
2018-09-17T04:25:46.364Z,3.80
2018-09-17T04:26:19.384Z,3.92
2018-09-17T04:26:52.413Z,4.65
2018-09-17T04:27:26.201Z,3.85
2018-09-17T04:27:59.235Z,3.95
2018-09-17T04:28:32.259Z,4.25
2018-09-17T04:29:06.054Z,3.78
2018-09-17T04:29:39.848Z,3.60
2018-09-17T04:30:13.640Z,3.90
2018-09-17T04:30:46.706Z,3.83
2018-09-17T04:31:20.496Z,3.75
2018-09-17T04:31:54.287Z,3.85
2018-09-17T04:32:27.328Z,3.72
2018-09-17T04:33:00.348Z,3.75
2018-09-17T04:33:34.143Z,4.00
2018-09-17T04:34:07.934Z,4.05
2018-09-17T04:34:41.715Z,4.07
2018-09-17T04:35:14.755Z,3.87
2018-09-17T04:35:47.809Z,3.65
2018-09-17T04:36:20.828Z,4.00
2018-09-17T04:36:53.868Z,3.97
2018-09-17T04:37:26.942Z,4.25
2018-09-17T04:37:59.968Z,3.67
2018-09-17T04:38:33.763Z,4.00
2018-09-17T04:39:06.816Z,3.92
2018-09-17T04:39:39.916Z,3.55
2018-09-17T04:40:12.881Z,4.20
2018-09-17T04:40:46.687Z,4.28
2018-09-17T04:41:19.719Z,3.95
2018-09-17T04:41:52.764Z,4.20
2018-09-17T04:42:25.787Z,3.97
2018-09-17T04:42:58.821Z,4.20
2018-09-17T04:43:31.868Z,4.28
2018-09-17T04:44:04.900Z,4.28
2018-09-17T04:44:37.948Z,4.30
2018-09-17T04:45:10.971Z,4.00
2018-09-17T04:45:44.788Z,3.65
2018-09-17T04:46:17.817Z,4.03
2018-09-17T04:46:50.868Z,4.32
2018-09-17T04:47:23.900Z,4.03
2018-09-17T04:47:56.939Z,3.70
2018-09-17T04:48:30.216Z,3.90
2018-09-17T04:49:03.268Z,4.10
2018-09-17T04:49:36.308Z,4.00
2018-09-17T04:50:10.099Z,4.40
2018-09-17T04:50:43.136Z,4.40
2018-09-17T04:51:16.174Z,3.87
2018-09-17T04:51:49.227Z,4.28
2018-09-17T04:52:22.270Z,4.37
2018-09-17T04:52:55.295Z,4.10
2018-09-17T04:53:28.315Z,4.05
2018-09-17T04:54:01.340Z,4.03
2018-09-17T04:54:34.377Z,4.18
2018-09-17T04:55:08.180Z,3.92
2018-09-17T04:55:41.976Z,4.03
2018-09-17T04:56:15.803Z,3.92
2018-09-17T04:56:48.839Z,4.07
2018-09-17T04:57:21.895Z,4.32
2018-09-17T04:57:54.891Z,3.83
2018-09-17T04:58:28.679Z,4.00
2018-09-17T04:59:02.481Z,3.95
2018-09-17T04:59:35.521Z,3.80
2018-09-17T05:00:08.560Z,4.12
2018-09-17T05:00:41.576Z,3.80
2018-09-17T05:01:14.615Z,3.70
2018-09-17T05:01:47.648Z,4.03
2018-09-17T05:02:20.677Z,3.67
2018-09-17T05:02:53.699Z,3.72
2018-09-17T05:03:26.735Z,4.20
2018-09-17T05:03:59.781Z,3.70
2018-09-17T05:04:32.837Z,4.15
2018-09-17T05:05:05.871Z,3.90
2018-09-17T05:05:38.898Z,4.00
2018-09-17T05:06:11.930Z,3.97
2018-09-17T05:06:45.716Z,4.40
2018-09-17T05:07:18.772Z,4.32
2018-09-17T05:07:51.780Z,4.15
2018-09-17T05:08:25.573Z,4.10
2018-09-17T05:08:59.369Z,4.00
2018-09-17T05:09:33.158Z,4.37
2018-09-17T05:10:06.957Z,3.47
2018-09-17T05:10:39.980Z,4.05
2018-09-17T05:11:13.025Z,3.90
2018-09-17T05:11:46.043Z,4.12
2018-09-17T05:12:19.086Z,4.18
2018-09-17T05:12:52.234Z,3.83
2018-09-17T05:13:25.343Z,3.85
2018-09-17T05:13:58.262Z,3.75
2018-09-17T05:14:31.285Z,4.07
2018-09-17T05:15:04.465Z,4.20
2018-09-17T05:15:37.508Z,4.00
2018-09-17T05:16:10.549Z,3.70
2018-09-17T05:16:43.575Z,3.83
2018-09-17T05:17:16.620Z,4.05
2018-09-17T05:17:49.643Z,3.75
2018-09-17T05:18:22.663Z,4.12
2018-09-17T05:18:56.460Z,3.90
2018-09-17T05:19:30.254Z,4.35
2018-09-17T05:20:04.052Z,4.10
2018-09-17T05:20:37.900Z,3.92
2018-09-17T05:21:11.664Z,3.60
2018-09-17T05:21:44.689Z,4.00
2018-09-17T05:22:17.721Z,4.07
2018-09-17T05:22:50.747Z,3.90
2018-09-17T05:23:24.558Z,4.12
2018-09-17T05:23:58.343Z,3.92
2018-09-17T05:24:32.137Z,3.85
2018-09-17T05:25:05.936Z,4.05
2018-09-17T05:25:38.964Z,4.28
2018-09-17T05:26:12.013Z,3.90
2018-09-17T05:26:45.812Z,4.10
2018-09-17T05:27:18.845Z,3.78
2018-09-17T05:27:52.628Z,4.12
2018-09-17T05:28:26.419Z,3.60
2018-09-17T05:29:00.288Z,4.00
2018-09-17T05:29:33.324Z,4.03
2018-09-17T05:30:06.364Z,4.10
2018-09-17T05:30:40.172Z,4.35
2018-09-17T05:31:13.983Z,4.35
2018-09-17T05:31:47.025Z,3.58
2018-09-17T05:32:20.068Z,4.12
2018-09-17T05:32:53.303Z,3.80
2018-09-17T05:33:26.396Z,4.00
2018-09-17T05:33:59.459Z,3.62
2018-09-17T05:34:32.448Z,4.12
2018-09-17T05:35:05.519Z,3.60
2018-09-17T05:35:38.543Z,4.28
2018-09-17T05:36:11.584Z,4.55
2018-09-17T05:36:44.613Z,4.10
2018-09-17T05:37:17.652Z,4.15
2018-09-17T05:37:50.683Z,4.10
2018-09-17T05:38:23.708Z,3.65
2018-09-17T05:38:56.751Z,4.20
2018-09-17T05:39:29.788Z,4.07
2018-09-17T05:40:02.820Z,4.28
2018-09-17T05:40:35.848Z,3.85
2018-09-17T05:41:08.874Z,4.57
2018-09-17T05:41:41.925Z,4.12
2018-09-17T05:42:14.959Z,4.12
2018-09-17T05:42:47.992Z,3.90
2018-09-17T05:43:21.026Z,4.40
2018-09-17T05:43:54.048Z,4.20
2018-09-17T05:44:27.251Z,4.28
2018-09-17T05:45:00.216Z,4.00
2018-09-17T05:45:34.250Z,4.32
2018-09-17T05:46:07.288Z,3.90
2018-09-17T05:46:41.116Z,4.37
2018-09-17T05:47:14.131Z,4.10
2018-09-17T05:47:47.163Z,3.87
2018-09-17T05:48:20.184Z,3.83
2018-09-17T05:48:53.216Z,4.10
2018-09-17T05:49:27.016Z,4.15
2018-09-17T05:50:00.040Z,4.20
2018-09-17T05:50:33.073Z,4.10
2018-09-17T05:51:06.104Z,4.40
2018-09-17T05:51:39.920Z,4.10
2018-09-17T05:52:12.955Z,4.00
2018-09-17T05:52:45.983Z,4.87
2018-09-17T05:53:19.020Z,4.22
2018-09-17T05:53:52.880Z,4.57
2018-09-17T05:54:26.612Z,4.47
2018-09-17T05:54:59.645Z,4.00
2018-09-17T05:55:32.685Z,4.30
2018-09-17T05:56:05.704Z,4.45
2018-09-17T05:56:38.755Z,4.78
2018-09-17T05:57:11.803Z,4.12
2018-09-17T05:57:44.827Z,4.15
2018-09-17T05:58:17.853Z,4.68
2018-09-17T05:58:50.884Z,4.22
2018-09-17T05:59:23.939Z,4.22
2018-09-17T05:59:57.731Z,4.40
2018-09-17T06:00:30.751Z,4.20
2018-09-17T06:01:03.777Z,4.03
2018-09-17T06:01:36.812Z,4.20
2018-09-17T06:02:09.864Z,4.20
2018-09-17T06:02:43.657Z,4.35
2018-09-17T06:03:17.461Z,4.18
2018-09-17T06:03:51.247Z,4.20
2018-09-17T06:04:25.035Z,4.15
2018-09-17T06:04:58.836Z,4.47
2018-09-17T06:05:32.660Z,4.57
2018-09-17T06:06:06.516Z,4.12
2018-09-17T06:06:39.472Z,4.40
2018-09-17T06:07:12.588Z,3.97
2018-09-17T06:07:45.536Z,4.00
2018-09-17T06:08:19.335Z,4.75
2018-09-17T06:08:52.387Z,4.10
2018-09-17T06:09:25.405Z,4.60
2018-09-17T06:09:58.440Z,4.50
2018-09-17T06:10:32.252Z,4.62
2018-09-17T06:11:06.059Z,3.97
2018-09-17T06:11:39.133Z,4.80
2018-09-17T06:12:12.139Z,5.22
2018-09-17T06:12:45.193Z,5.03
2018-09-17T06:13:18.210Z,4.60
2018-09-17T06:13:51.244Z,4.60
2018-09-17T06:14:24.278Z,4.70
2018-09-17T06:14:58.080Z,5.37
2018-09-17T06:15:31.877Z,4.72
2018-09-17T06:16:05.655Z,3.97
2018-09-17T06:16:39.459Z,4.93
2018-09-17T06:17:12.513Z,4.72
2018-09-17T06:17:45.545Z,5.15
2018-09-17T06:18:18.592Z,5.35
2018-09-17T06:18:51.615Z,5.20
2018-09-17T06:19:25.425Z,5.10
2018-09-17T06:19:58.427Z,4.50
2018-09-17T06:20:31.455Z,5.30
2018-09-17T06:21:04.498Z,5.10
2018-09-17T06:21:37.523Z,4.75
2018-09-17T06:22:10.559Z,4.72
2018-09-17T06:22:43.592Z,4.37
2018-09-17T06:23:17.405Z,5.00
2018-09-17T06:23:50.431Z,4.85
2018-09-17T06:24:23.467Z,4.45
2018-09-17T06:24:56.491Z,5.03
2018-09-17T06:25:30.287Z,4.60
2018-09-17T06:26:03.318Z,4.78
2018-09-17T06:26:36.425Z,4.87
2018-09-17T06:27:09.411Z,4.60
2018-09-17T06:27:42.447Z,5.85
2018-09-17T06:28:15.471Z,5.37
2018-09-17T06:28:49.343Z,5.18
2018-09-17T06:29:22.363Z,5.28
2018-09-17T06:29:55.389Z,5.57
2018-09-17T06:30:29.288Z,5.67
2018-09-17T06:31:02.328Z,4.80
2018-09-17T06:32:08.648Z,5.85
2018-09-17T06:32:41.687Z,5.45
2018-09-17T06:33:14.739Z,5.25
2018-09-17T06:33:47.788Z,5.57
2018-09-17T06:34:20.820Z,5.62
2018-09-17T06:34:53.889Z,6.10
2018-09-17T06:35:26.942Z,5.60
2018-09-17T06:35:59.967Z,5.43
2018-09-17T06:36:33.000Z,5.00
2018-09-17T06:37:06.059Z,4.97
2018-09-17T06:37:39.102Z,4.28
2018-09-17T06:38:44.633Z,4.65
2018-09-17T06:39:17.656Z,4.72
2018-09-17T06:39:50.684Z,4.87
2018-09-17T06:40:23.718Z,4.65
2018-09-17T06:40:56.750Z,3.93
2018-09-17T06:41:29.834Z,3.95
2018-09-17T06:42:03.580Z,4.37
2018-09-17T06:44:15.676Z,4.50
2018-09-17T06:45:22.264Z,4.25
2018-09-17T06:45:55.306Z,4.28
2018-09-17T06:46:29.119Z,3.40
2018-09-17T06:47:02.912Z,4.25
2018-09-17T06:47:36.700Z,4.25
2018-09-17T06:48:09.747Z,4.15
2018-09-17T06:48:42.792Z,4.40
2018-09-17T06:49:15.812Z,4.30
2018-09-17T06:49:49.615Z,4.10
2018-09-17T06:50:22.644Z,4.12
2018-09-17T06:50:55.676Z,4.10
2018-09-17T06:51:28.736Z,4.30
2018-09-17T06:52:01.743Z,4.22
2018-09-17T06:52:34.768Z,4.12
2018-09-17T06:53:08.578Z,4.30
2018-09-17T06:53:42.415Z,3.85
2018-09-17T06:54:16.170Z,3.92
2018-09-17T06:54:49.951Z,4.18
2018-09-17T06:55:23.744Z,3.60
2018-09-17T06:55:57.700Z,4.10
2018-09-17T06:56:30.700Z,3.75
2018-09-17T06:57:04.500Z,3.67
2018-09-17T07:16:44.638Z,3.60
2018-09-17T07:17:17.664Z,4.55
2018-09-17T07:17:50.687Z,3.92
2018-09-17T07:18:56.253Z,4.37
2018-09-17T07:19:30.080Z,3.65
2018-09-17T07:20:03.112Z,4.50
2018-09-17T07:20:36.916Z,4.20
2018-09-17T07:21:09.949Z,4.10
2018-09-17T07:21:43.994Z,4.20
2018-09-17T07:22:17.834Z,4.15
2018-09-17T07:23:23.398Z,3.80
2018-09-17T07:23:56.419Z,4.40
2018-09-17T07:25:01.960Z,3.83
2018-09-17T07:25:34.992Z,3.92
2018-09-17T07:26:08.780Z,4.60
2018-09-17T07:26:41.819Z,3.83
2018-09-17T07:27:15.112Z,4.60
2018-09-17T07:28:20.675Z,3.90
2018-09-17T07:34:52.172Z,4.70
2018-09-17T07:37:04.253Z,4.30
2018-09-17T07:37:38.062Z,4.40
2018-09-17T07:39:18.411Z,4.77
2018-09-17T07:41:28.980Z,5.10
2018-09-17T07:43:07.100Z,5.00
2018-09-17T07:48:33.531Z,4.82
2018-09-17T07:49:06.576Z,4.90
2018-09-17T07:49:39.616Z,5.50
2018-09-17T07:50:45.943Z,5.20
2018-09-17T07:51:18.967Z,5.05
2018-09-17T07:51:52.022Z,5.35
2018-09-17T07:52:25.048Z,4.90
2018-09-17T07:52:58.908Z,4.93
2018-09-17T07:53:31.892Z,4.47
2018-09-17T07:54:04.932Z,5.43
2018-09-17T07:54:37.969Z,5.03
2018-09-17T07:55:11.771Z,5.65
2018-09-17T07:55:44.800Z,6.07
2018-09-17T07:56:17.830Z,5.05
2018-09-17T07:56:50.868Z,5.75
2018-09-17T08:01:15.391Z,5.70
2018-09-17T08:01:48.448Z,5.53
2018-09-17T08:02:21.468Z,5.78
2018-09-17T08:02:54.496Z,5.18
2018-09-17T08:06:13.164Z,5.47
2018-09-17T08:06:46.959Z,5.62
2018-09-17T08:07:20.739Z,6.07
2018-09-17T08:07:54.534Z,5.75
2018-09-17T08:08:28.380Z,5.45
2018-09-17T08:12:50.483Z,5.40
2018-09-17T08:26:28.355Z,5.30
2018-09-17T08:28:06.436Z,5.50
2018-09-17T08:28:39.479Z,5.15
2018-09-17T11:56:18.850Z,3.62
2018-09-17T12:48:26.932Z,3.10
2018-09-17T12:48:59.976Z,4.30
2018-09-17T12:49:33.012Z,3.28
2018-09-17T12:50:06.051Z,3.12
2018-09-17T12:50:39.125Z,3.60
2018-09-17T12:51:12.165Z,3.33
2018-09-17T12:51:45.175Z,3.30
2018-09-17T12:52:18.237Z,3.35
2018-09-17T12:52:51.517Z,3.28
2018-09-17T12:53:24.554Z,3.40
2018-09-17T12:53:57.824Z,3.17
2018-09-17T12:54:31.635Z,3.25
2018-09-17T12:55:04.675Z,3.62
2018-09-17T12:55:38.475Z,3.60
2018-09-17T12:56:12.290Z,3.65
2018-09-17T12:56:45.334Z,3.20
2018-09-17T12:57:18.397Z,3.42
2018-09-17T12:57:51.411Z,2.97
2018-09-17T12:58:24.455Z,2.80
2018-09-17T12:58:57.507Z,3.08
2018-09-17T12:59:30.582Z,3.87
2018-09-17T13:00:03.612Z,3.42
2018-09-17T13:00:36.676Z,3.33
2018-09-17T13:01:09.716Z,3.60
2018-09-17T13:13:40.956Z,3.10
2018-09-17T13:14:46.533Z,4.00
2018-09-17T13:15:19.642Z,3.30
2018-09-17T13:16:25.211Z,3.20
2018-09-17T13:16:59.014Z,3.30
2018-09-17T13:17:32.040Z,3.30
2018-09-17T13:18:37.623Z,3.60
2018-09-17T13:19:10.671Z,4.00
2018-09-17T13:19:43.724Z,3.30
2018-09-17T13:20:16.772Z,3.20
2018-09-17T13:22:27.562Z,3.60
2018-09-17T13:23:00.592Z,4.10
2018-09-17T13:23:33.620Z,3.70
2018-09-17T13:24:06.670Z,3.50
2018-09-17T13:24:39.704Z,3.70
2018-09-17T13:25:46.516Z,3.90
2018-09-17T13:26:52.286Z,3.97
2018-09-17T13:27:25.316Z,4.05
2018-09-17T13:27:59.131Z,3.80
2018-09-17T13:28:32.189Z,3.27
2018-09-17T13:29:05.236Z,3.35
2018-09-17T13:29:38.367Z,3.60
2018-09-17T13:30:11.404Z,3.60
2018-09-17T13:30:44.424Z,3.60
2018-09-17T13:33:27.602Z,3.50
2018-09-17T13:34:01.376Z,3.75
2018-09-17T13:34:34.528Z,3.30
2018-09-17T13:35:07.536Z,3.50
2018-09-17T13:36:13.087Z,3.10
2018-09-17T13:37:19.405Z,3.90
2018-09-17T13:37:52.433Z,3.10
2018-09-17T13:38:25.467Z,3.30
2018-09-17T13:38:59.268Z,2.80
2018-09-17T13:39:32.345Z,3.00
2018-09-17T13:40:05.360Z,3.10
2018-09-17T13:40:38.401Z,3.00
2018-09-17T13:41:43.952Z,3.40
2018-09-17T13:42:17.028Z,2.70
2018-09-17T13:43:55.163Z,4.10
2018-09-17T13:44:28.242Z,3.50
2018-09-17T13:45:01.971Z,3.00
2018-09-17T13:45:35.776Z,2.95
2018-09-17T13:46:08.824Z,3.60
2018-09-17T13:46:41.859Z,3.00
2018-09-17T13:47:14.898Z,3.30
2018-09-17T13:47:47.943Z,3.30
2018-09-17T13:48:21.759Z,3.35
2018-09-17T13:48:55.572Z,3.37
2018-09-17T13:49:28.647Z,3.35
2018-09-17T13:54:22.939Z,3.20
2018-09-17T13:54:55.996Z,3.50
2018-09-17T13:55:29.041Z,3.60
2018-09-17T13:56:02.095Z,3.40
2018-09-17T13:56:35.450Z,3.40
2018-09-17T13:57:09.272Z,3.40
2018-09-17T13:58:15.603Z,3.60
2018-09-17T13:58:49.377Z,3.70
2018-09-17T13:59:22.400Z,3.05
2018-09-17T13:59:55.452Z,2.70
2018-09-17T14:00:28.740Z,3.10
2018-09-17T14:01:01.741Z,3.10
2018-09-17T14:02:07.274Z,3.07
2018-09-17T14:02:40.323Z,3.30
2018-09-17T14:03:14.129Z,3.00
2018-09-17T14:03:47.158Z,3.23
2018-09-17T14:04:20.294Z,3.40
2018-09-17T14:04:53.253Z,3.10
2018-09-17T14:05:27.063Z,3.35
2018-09-17T14:06:00.146Z,3.15
2018-09-17T14:06:33.174Z,3.45
2018-09-17T14:07:06.470Z,2.83
2018-09-17T14:07:39.734Z,3.40
2018-09-17T14:08:12.735Z,3.50
2018-09-17T14:08:45.779Z,3.10
2018-09-17T14:09:18.818Z,3.20
2018-09-17T14:09:51.898Z,2.90
2018-09-17T14:10:25.040Z,3.25
2018-09-17T14:10:58.110Z,3.60
2018-09-17T14:11:31.246Z,3.45
2018-09-17T14:12:05.030Z,3.35
2018-09-17T14:12:39.552Z,3.50
2018-09-17T14:13:12.586Z,3.70
2018-09-17T14:13:45.656Z,3.15
2018-09-17T14:14:18.693Z,3.50
2018-09-17T14:14:51.739Z,3.28
2018-09-17T14:15:24.772Z,3.67
2018-09-17T14:15:57.801Z,2.90
2018-09-17T14:16:30.841Z,3.33
2018-09-17T14:17:04.651Z,3.30
2018-09-17T14:17:37.678Z,3.45
2018-09-17T14:18:10.731Z,4.07
2018-09-17T14:18:43.777Z,3.40
2018-09-17T14:19:17.568Z,3.35
2018-09-17T14:19:50.632Z,3.28
2018-09-17T14:20:24.672Z,3.10
2018-09-17T14:20:57.720Z,2.78
2018-09-17T14:21:31.549Z,3.25
2018-09-17T14:22:04.600Z,3.30
2018-09-17T14:22:37.635Z,3.17
2018-09-17T14:23:11.432Z,3.15
2018-09-17T14:23:45.249Z,3.10
2018-09-17T14:24:18.284Z,3.30
2018-09-17T14:24:51.329Z,2.75
2018-09-17T14:25:24.370Z,3.08
2018-09-17T14:25:57.473Z,3.30
2018-09-17T14:26:30.448Z,2.92
2018-09-17T14:27:03.564Z,3.30
2018-09-17T14:27:36.538Z,3.33
2018-09-17T14:28:09.585Z,3.40
2018-09-17T14:28:42.611Z,3.25
2018-09-17T14:29:15.643Z,3.00
2018-09-17T14:29:48.676Z,3.40
2018-09-17T14:30:21.720Z,2.87
2018-09-17T14:30:55.544Z,3.50
2018-09-17T14:31:28.600Z,3.28
2018-09-17T14:32:01.607Z,3.20
2018-09-17T14:32:49.538Z,3.03
2018-09-17T14:33:28.257Z,3.60
2018-09-17T14:34:01.279Z,3.67
2018-09-17T14:34:35.080Z,3.37
2018-09-17T14:35:08.170Z,3.25
2018-09-17T14:35:41.266Z,3.00
2018-09-17T14:36:14.215Z,3.30
2018-09-17T14:36:47.246Z,3.00
2018-09-17T14:37:20.308Z,3.20
2018-09-17T14:37:53.327Z,3.20
2018-09-17T14:38:26.360Z,3.05
2018-09-17T14:38:59.396Z,3.28
2018-09-17T14:39:32.435Z,2.80
2018-09-17T14:40:06.275Z,3.20
2018-09-17T14:40:39.314Z,3.30
2018-09-17T14:41:13.112Z,3.10
2018-09-17T14:41:46.185Z,2.80
2018-09-17T14:42:19.194Z,3.20
2018-09-17T14:42:53.669Z,3.08
2018-09-17T14:43:27.479Z,2.95
2018-09-17T14:44:00.487Z,2.70
2018-09-17T14:44:33.538Z,3.35
2018-09-17T14:45:06.602Z,3.67
2018-09-17T14:45:39.628Z,3.12
2018-09-17T14:46:12.735Z,3.40
2018-09-17T14:46:45.705Z,2.95
2018-09-17T14:47:18.749Z,3.03
2018-09-17T14:47:51.796Z,3.25
2018-09-17T14:48:24.838Z,3.28
2018-09-17T14:48:57.898Z,2.58
2018-09-17T14:49:31.716Z,2.97
2018-09-17T14:50:05.491Z,3.00
2018-09-17T14:50:38.579Z,3.40
2018-09-17T14:51:11.609Z,3.40
2018-09-17T14:51:44.674Z,2.90
2018-09-17T14:52:17.958Z,3.00
2018-09-17T14:52:51.753Z,2.90
2018-09-17T14:53:24.849Z,3.08
2018-09-17T14:53:57.857Z,3.10
2018-09-17T14:54:30.951Z,3.00
2018-09-17T14:55:03.920Z,2.95
2018-09-17T14:55:36.987Z,2.75
2018-09-17T14:56:09.991Z,2.92
2018-09-17T14:56:43.023Z,3.10
2018-09-17T14:57:16.066Z,3.28
2018-09-17T14:57:49.905Z,3.10
2018-09-17T14:58:23.059Z,3.10
2018-09-17T14:58:55.959Z,2.83
2018-09-17T14:59:29.006Z,2.87
2018-09-17T15:00:02.072Z,2.80
2018-09-17T15:00:35.104Z,3.12
2018-09-17T15:01:08.164Z,3.03
2018-09-17T15:01:41.355Z,3.00
2018-09-17T15:02:14.244Z,2.92
2018-09-17T15:02:47.275Z,3.22
2018-09-17T15:03:20.320Z,3.15
2018-09-17T15:03:54.129Z,3.12
2018-09-17T15:04:27.223Z,2.87
2018-09-17T15:05:00.221Z,3.00
2018-09-17T15:05:33.255Z,3.22
2018-09-17T15:06:06.280Z,2.97
2018-09-17T15:06:39.438Z,2.80
2018-09-17T15:07:12.464Z,3.87
2018-09-17T15:07:45.536Z,2.75
2018-09-17T15:08:18.569Z,3.10
2018-09-17T15:08:51.575Z,2.72
2018-09-17T15:09:24.605Z,2.92
2018-09-17T15:09:57.715Z,3.10
2018-09-17T15:10:31.789Z,3.30
2018-09-17T15:11:04.711Z,3.28
2018-09-17T15:11:37.745Z,2.72
2018-09-17T15:12:10.796Z,2.90
2018-09-17T15:12:43.832Z,3.28
2018-09-17T15:13:16.854Z,3.20
2018-09-17T15:13:49.912Z,2.92
2018-09-17T15:14:23.074Z,3.12
2018-09-17T15:14:56.169Z,3.20
2018-09-17T15:15:29.204Z,2.80
2018-09-17T15:16:02.476Z,3.22
2018-09-17T15:16:35.429Z,3.65
2018-09-17T15:17:08.454Z,3.10
2018-09-17T15:17:41.522Z,3.00
2018-09-17T15:18:15.312Z,3.22
2018-09-17T15:18:49.099Z,3.12
2018-09-17T15:19:22.150Z,2.87
2018-09-17T15:19:55.205Z,3.10
2018-09-17T15:20:28.250Z,2.87
2018-09-17T15:21:01.283Z,3.00
2018-09-17T15:21:35.114Z,3.15
2018-09-17T15:22:08.200Z,3.17
2018-09-17T15:22:41.204Z,2.90
2018-09-17T15:23:14.236Z,3.53
2018-09-17T15:23:47.333Z,3.05
2018-09-17T15:24:20.513Z,3.10
2018-09-17T15:24:53.531Z,3.08
2018-09-17T15:25:27.341Z,2.92
2018-09-17T15:26:00.456Z,3.42
2018-09-17T15:26:33.453Z,3.10
2018-09-17T15:27:06.470Z,2.60